Des Moines, WA

8:00 PM PDT on October 25, 2014 (GMT -0700)
Des Moines | Change Station
CLOSE
Current Station
Personal Weather Station
Location: Seattle, WA
Elevation: 344 ft
Nearby Weather Stations
Active Advisory: High Wind Warning

Elev 344 ft 47.43 °N, 122.33 °W | Updated 3 seconds ago

Light Rain
Light Rain
53.6 °F
Feels Like 53.6 °F
N
19.0
Wind Variable Wind from SSW
Gusts 25.0 mph

Today
High -- | Low -- °F
--% Chance of Precip.
Yesterday
High -- | Low -- °F
Precip. -- in
7:42 AM 6:03 PM
Waxing Crescent, 5% visible
Pressure 29.44 in
Visibility 7.0 miles
Clouds Few 800 ft
Mostly Cloudy 1200 ft
Overcast 2300 ft
Dew Point 52 °F
Humidity 96%
Rainfall 0.23 in
Snow Depth Not available.
UV 0 out of 12
Pollen .40 out of 12
Air Quality Not available.
Flu Activity Sporadic
METAR KSEA 260253Z 20023G34KT 7SM -RA FEW008 BKN012 OVC023 12/11 A2942 RMK AO2 PK WND 21038/0237 PRESRR SLP967 P0005 60014 T01220106 53044

More Conditions Fewer Conditions

Pressure 29.44 in
Visibility 7.0 miles
Clouds Few 800 ft
Mostly Cloudy 1200 ft
Overcast 2300 ft
Dew Point 52 °F
Humidity 96%
Rainfall 0.23 in
Snow Depth Not available.
UV 0 out of 12
Pollen .40 out of 12
Air Quality Not available.
Flu Activity Sporadic
METAR KSEA 260253Z 20023G34KT 7SM -RA FEW008 BKN012 OVC023 12/11 A2942 RMK AO2 PK WND 21038/0237 PRESRR SLP967 P0005 60014 T01220106 53044

More Conditions Fewer Conditions

10-Day Weather Forecast

Almanac

Astronomy

Oct. 25, 2014 Rise Set
Actual Time 7:42 AM PDT 6:03 PM PDT
Civil Twilight 7:11 AM PDT 6:34 PM PDT
Nautical Twilight 6:35 AM PDT 7:10 PM PDT
Astronomical Twilight 5:59 AM PDT 7:46 PM PDT
Moon 9:32 AM PDT (10/25) 7:24 PM PDT (10/25)
Length of Visible Light 11h 23m
Length of Day
10h 20m
Tomorrow will be 3m 10s shorter.
Waxing Crescent, 5% of the Moon is Illuminated
Today
Waxing Crescent
Oct 30
First Quarter
Nov 6
Full
Nov 14
Last Quarter
Nov 22
New

Today's Extremes

State Highs State Lows

Community

WunderPhotos

Upload Photos

1,765,091 photos uploaded!

Nearby

Air Quality

  Air Quality AQ Index Pollutant
Saturday Good
PM2.5
Sunday Good
PM2.5
Monday Good
PM2.5
Tuesday Good
PM2.5
Wednesday Good
PM2.5

Snow Depth

Station Depth Elevation
Burnt Mountain 0 in 4200 ft
Mount Gardner 0 in 3000 ft
Alpine Meadows 0 in 3500 ft
Skookum Creek 0 in 3920 ft
Meadows Pass 1 in 3500 ft

Earthquake Activity

City Distance Mag. Time & Date
Birch Bay, Washington 99 miles 2.8 3:02 AM PDT
2014-10-24
Minimum magnitude displayed is 2.5.

Coastal Water Temperatures

Place Temperature
Port Townsend, WA 53.1 °F
Seattle, WA 55.0 °F
Friday Harbor, WA 51.1 °F
Tacoma, WA 54.0 °F

Nearby Weather Stations